PWSweather.com
Personal Weather Stations
Station Observations
719732
Ponferrada, PonferradaES 24411

PonferradaPonferradaES 24411

Lat: 42.5728, Lon: -6.6425

Elevation: 1676

Station Type: PCE-FWS 20 con garita Ambient Weather SRS100LX

www.meteo.spyfly.es

High Low Average
Temperature 56.5°F13.6°C 29.3°F-1.5°C 41.3°F5.2°C
Dew Point 36.1°F2.3°C 19.6°F-6.9°C 29.3°F-1.5°C
Winds 3.8 mph 6.1 kmh Calm Calm 1.0 mph SE1.6 kmh SE
Wind Gusts 9.2 mph14.8 kmh -- 3.0 mph4.8 kmh
Humidity 89% 26% 66%
Pressure 30.43 in1030.5 mb 30.29 in1025.7 mb -
Precipitation 0.12 in3.0 mm - -
Hour Temp Dew Point Humidity Winds Wind Gusts Pressure Precip Precip Rate Daily Precip Total
12:00 AM 41.5°F5.3°C 33.9°F1.1°C 74% 3.1 mph ENE5.0 kmh ENE 4.5 mph7.2 kmh 30.29 in1025.7 mb 0.00 in0.0 mm 0.00 in0.0 mm 0.12 in3.0 mm
12:05 AM 41.4°F5.2°C 33.7°F0.9°C 74% 1.6 mph E2.6 kmh E 4.5 mph7.2 kmh 30.29 in1025.7 mb 0.00 in0.0 mm 0.00 in0.0 mm 0.12 in3.0 mm
12:10 AM 41.4°F5.2°C 33.7°F0.9°C 74% 2.2 mph NE3.5 kmh NE 4.5 mph7.2 kmh 30.29 in1025.7 mb 0.00 in0.0 mm 0.00 in0.0 mm 0.12 in3.0 mm
12:15 AM 41.0°F5.0°C 33.4°F0.8°C 74% 1.6 mph NNW2.6 kmh NNW 3.1 mph5.0 kmh 30.30 in1026.1 mb 0.00 in0.0 mm 0.00 in0.0 mm 0.12 in3.0 mm
12:20 AM 40.8°F4.9°C 33.9°F1.1°C 76% 2.2 mph NW3.5 kmh NW 3.8 mph6.1 kmh 30.30 in1026.1 mb 0.00 in0.0 mm 0.00 in0.0 mm 0.12 in3.0 mm
12:25 AM 40.6°F4.8°C 33.7°F0.9°C 76% 1.6 mph NW2.6 kmh NW 4.5 mph7.2 kmh 30.30 in1026.1 mb 0.00 in0.0 mm 0.00 in0.0 mm 0.12 in3.0 mm
12:30 AM 40.8°F4.9°C 33.9°F1.1°C 76% 3.8 mph NW6.1 kmh NW 9.2 mph14.8 kmh 30.29 in1025.7 mb 0.00 in0.0 mm 0.00 in0.0 mm 0.12 in3.0 mm
12:35 AM 40.8°F4.9°C 33.9°F1.1°C 76% 0.7 mph NW1.1 kmh NW 9.2 mph14.8 kmh 30.30 in1026.1 mb 0.00 in0.0 mm 0.00 in0.0 mm 0.12 in3.0 mm
12:40 AM 40.6°F4.8°C 33.3°F0.7°C 75% 0.7 mph NW1.1 kmh NW 4.5 mph7.2 kmh 30.30 in1026.1 mb 0.00 in0.0 mm 0.00 in0.0 mm 0.12 in3.0 mm
12:45 AM 40.3°F4.6°C 33.0°F0.6°C 75% 0.7 mph NNW1.1 kmh NNW 3.8 mph6.1 kmh 30.30 in1026.1 mb 0.00 in0.0 mm 0.00 in0.0 mm 0.12 in3.0 mm
12:50 AM 39.9°F4.4°C 33.0°F0.6°C 76% Calm Calm 2.2 mph3.5 kmh 30.30 in1026.1 mb 0.00 in0.0 mm 0.00 in0.0 mm 0.12 in3.0 mm
12:55 AM 39.7°F4.3°C 32.8°F0.4°C 76% 1.6 mph SSW2.6 kmh SSW 3.8 mph6.1 kmh 30.29 in1025.7 mb 0.00 in0.0 mm 0.00 in0.0 mm 0.12 in3.0 mm
01:00 AM 39.7°F4.3°C 33.1°F0.6°C 77% 1.6 mph SW2.6 kmh SW 3.8 mph6.1 kmh 30.30 in1026.1 mb 0.00 in0.0 mm 0.00 in0.0 mm 0.00 in0.0 mm
01:05 AM 40.1°F4.5°C 33.5°F0.8°C 77% 2.2 mph WSW3.5 kmh WSW 3.8 mph6.1 kmh 30.30 in1026.1 mb 0.00 in0.0 mm 0.00 in0.0 mm 0.00 in0.0 mm
01:10 AM 40.5°F4.7°C 33.8°F1.0°C 77% 1.6 mph W2.6 kmh W 5.4 mph8.7 kmh 30.29 in1025.7 mb 0.00 in0.0 mm 0.00 in0.0 mm 0.00 in0.0 mm
01:15 AM 39.9°F4.4°C 33.0°F0.6°C 76% 2.2 mph NW3.5 kmh NW 5.4 mph8.7 kmh 30.29 in1025.7 mb 0.00 in0.0 mm 0.00 in0.0 mm 0.00 in0.0 mm
01:20 AM 38.8°F3.8°C 31.9°F-0.1°C 76% 0.7 mph NNW1.1 kmh NNW 3.8 mph6.1 kmh 30.29 in1025.7 mb 0.00 in0.0 mm 0.00 in0.0 mm 0.00 in0.0 mm
01:25 AM 37.9°F3.3°C 31.1°F-0.5°C 76% Calm Calm 3.1 mph5.0 kmh 30.30 in1026.1 mb 0.00 in0.0 mm 0.00 in0.0 mm 0.00 in0.0 mm
01:30 AM 37.2°F2.9°C 29.4°F-1.4°C 73% 0.7 mph N1.1 kmh N 1.6 mph2.6 kmh 30.30 in1026.1 mb 0.00 in0.0 mm 0.00 in0.0 mm 0.00 in0.0 mm
01:35 AM 36.9°F2.7°C 29.4°F-1.4°C 74% 1.6 mph ENE2.6 kmh ENE 3.1 mph5.0 kmh 30.30 in1026.1 mb 0.00 in0.0 mm 0.00 in0.0 mm 0.00 in0.0 mm
01:40 AM 36.5°F2.5°C 29.3°F-1.5°C 75% 0.7 mph E1.1 kmh E 3.1 mph5.0 kmh 30.30 in1026.1 mb 0.00 in0.0 mm 0.00 in0.0 mm 0.00 in0.0 mm
01:45 AM 36.1°F2.3°C 29.0°F-1.7°C 75% 1.6 mph NE2.6 kmh NE 2.2 mph3.5 kmh 30.31 in1026.4 mb 0.00 in0.0 mm 0.00 in0.0 mm 0.00 in0.0 mm
01:50 AM 35.4°F1.9°C 28.6°F-1.9°C 76% 1.6 mph N2.6 kmh N 2.2 mph3.5 kmh 30.31 in1026.4 mb 0.00 in0.0 mm 0.00 in0.0 mm 0.00 in0.0 mm
01:55 AM 35.1°F1.7°C 28.3°F-2.1°C 76% 1.6 mph N2.6 kmh N 3.1 mph5.0 kmh 30.31 in1026.4 mb 0.00 in0.0 mm 0.00 in0.0 mm 0.00 in0.0 mm
02:00 AM 34.5°F1.4°C 28.1°F-2.2°C 77% Calm Calm 3.1 mph5.0 kmh 30.31 in1026.4 mb 0.00 in0.0 mm 0.00 in0.0 mm 0.00 in0.0 mm
02:05 AM 34.3°F1.3°C 27.9°F-2.3°C 77% 0.7 mph NE1.1 kmh NE 3.1 mph5.0 kmh 30.31 in1026.4 mb 0.00 in0.0 mm 0.00 in0.0 mm 0.00 in0.0 mm
02:10 AM 34.3°F1.3°C 28.2°F-2.1°C 78% 0.7 mph NE1.1 kmh NE 1.6 mph2.6 kmh 30.31 in1026.4 mb 0.00 in0.0 mm 0.00 in0.0 mm 0.00 in0.0 mm
02:15 AM 34.3°F1.3°C 28.5°F-1.9°C 79% Calm Calm 2.2 mph3.5 kmh 30.31 in1026.4 mb 0.00 in0.0 mm 0.00 in0.0 mm 0.00 in0.0 mm
02:20 AM 34.2°F1.2°C 28.7°F-1.8°C 80% 1.6 mph NE2.6 kmh NE 2.2 mph3.5 kmh 30.31 in1026.4 mb 0.00 in0.0 mm 0.00 in0.0 mm 0.00 in0.0 mm
02:25 AM 34.2°F1.2°C 28.7°F-1.8°C 80% 0.7 mph E1.1 kmh E 2.2 mph3.5 kmh 30.32 in1026.8 mb 0.00 in0.0 mm 0.00 in0.0 mm 0.00 in0.0 mm
02:30 AM 34.0°F1.1°C 28.8°F-1.8°C 81% Calm Calm 3.1 mph5.0 kmh 30.32 in1026.8 mb 0.00 in0.0 mm 0.00 in0.0 mm 0.00 in0.0 mm
02:35 AM 33.8°F1.0°C 28.6°F-1.9°C 81% 2.2 mph E3.5 kmh E 3.1 mph5.0 kmh 30.31 in1026.4 mb 0.00 in0.0 mm 0.00 in0.0 mm 0.00 in0.0 mm
02:40 AM 33.8°F1.0°C 28.9°F-1.7°C 82% 0.7 mph ESE1.1 kmh ESE 3.8 mph6.1 kmh 30.31 in1026.4 mb 0.00 in0.0 mm 0.00 in0.0 mm 0.00 in0.0 mm
02:45 AM 33.8°F1.0°C 28.9°F-1.7°C 82% 1.6 mph ESE2.6 kmh ESE 3.8 mph6.1 kmh 30.31 in1026.4 mb 0.00 in0.0 mm 0.00 in0.0 mm 0.00 in0.0 mm
02:50 AM 33.8°F1.0°C 28.9°F-1.7°C 82% 0.7 mph ENE1.1 kmh ENE 3.1 mph5.0 kmh 30.31 in1026.4 mb 0.00 in0.0 mm 0.00 in0.0 mm 0.00 in0.0 mm
02:55 AM 33.6°F0.9°C 29.0°F-1.7°C 83% Calm Calm 3.1 mph5.0 kmh 30.31 in1026.4 mb 0.00 in0.0 mm 0.00 in0.0 mm 0.00 in0.0 mm
03:00 AM 33.3°F0.7°C 28.7°F-1.8°C 83% 0.7 mph NNE1.1 kmh NNE 3.1 mph5.0 kmh 30.31 in1026.4 mb 0.00 in0.0 mm 0.00 in0.0 mm 0.00 in0.0 mm
03:05 AM 33.1°F0.6°C 28.5°F-1.9°C 83% 0.7 mph N1.1 kmh N 3.1 mph5.0 kmh 30.31 in1026.4 mb 0.00 in0.0 mm 0.00 in0.0 mm 0.00 in0.0 mm
03:10 AM 33.1°F0.6°C 28.5°F-1.9°C 83% 0.7 mph N1.1 kmh N 2.2 mph3.5 kmh 30.31 in1026.4 mb 0.00 in0.0 mm 0.00 in0.0 mm 0.00 in0.0 mm
03:15 AM 32.9°F0.5°C 28.3°F-2.1°C 83% Calm Calm 2.2 mph3.5 kmh 30.31 in1026.4 mb 0.00 in0.0 mm 0.00 in0.0 mm 0.00 in0.0 mm
03:20 AM 32.9°F0.5°C 28.3°F-2.1°C 83% Calm Calm 2.2 mph3.5 kmh 30.31 in1026.4 mb 0.00 in0.0 mm 0.00 in0.0 mm 0.00 in0.0 mm
03:25 AM 32.9°F0.5°C 28.6°F-1.9°C 84% Calm Calm 0.7 mph1.1 kmh 30.31 in1026.4 mb 0.00 in0.0 mm 0.00 in0.0 mm 0.00 in0.0 mm
03:30 AM 32.9°F0.5°C 28.6°F-1.9°C 84% Calm Calm -- 30.31 in1026.4 mb 0.00 in0.0 mm 0.00 in0.0 mm 0.00 in0.0 mm
03:35 AM 32.7°F0.4°C 28.4°F-2.0°C 84% Calm Calm 2.2 mph3.5 kmh 30.31 in1026.4 mb 0.00 in0.0 mm 0.00 in0.0 mm 0.00 in0.0 mm
03:40 AM 32.5°F0.3°C 28.3°F-2.1°C 84% Calm Calm 2.2 mph3.5 kmh 30.32 in1026.8 mb 0.00 in0.0 mm 0.00 in0.0 mm 0.00 in0.0 mm
03:45 AM 32.4°F0.2°C 28.1°F-2.2°C 84% 0.7 mph E1.1 kmh E 2.2 mph3.5 kmh 30.31 in1026.4 mb 0.00 in0.0 mm 0.00 in0.0 mm 0.00 in0.0 mm
03:50 AM 32.4°F0.2°C 28.1°F-2.2°C 84% Calm Calm 2.2 mph3.5 kmh 30.31 in1026.4 mb 0.00 in0.0 mm 0.00 in0.0 mm 0.00 in0.0 mm
03:55 AM 32.2°F0.1°C 27.9°F-2.3°C 84% 0.7 mph NE1.1 kmh NE 1.6 mph2.6 kmh 30.31 in1026.4 mb 0.00 in0.0 mm 0.00 in0.0 mm 0.00 in0.0 mm
04:00 AM 32.0°F0.0°C 27.7°F-2.4°C 84% Calm Calm 1.6 mph2.6 kmh 30.31 in1026.4 mb 0.00 in0.0 mm 0.00 in0.0 mm 0.00 in0.0 mm
04:05 AM 31.6°F-0.2°C 27.7°F-2.4°C 85% Calm Calm 1.6 mph2.6 kmh 30.31 in1026.4 mb 0.00 in0.0 mm 0.00 in0.0 mm 0.00 in0.0 mm
04:10 AM 31.5°F-0.3°C 27.5°F-2.5°C 85% Calm Calm 1.6 mph2.6 kmh 30.32 in1026.8 mb 0.00 in0.0 mm 0.00 in0.0 mm 0.00 in0.0 mm
04:15 AM 31.3°F-0.4°C 27.3°F-2.6°C 85% 0.7 mph SE1.1 kmh SE 1.6 mph2.6 kmh 30.31 in1026.4 mb 0.00 in0.0 mm 0.00 in0.0 mm 0.00 in0.0 mm
04:20 AM 31.3°F-0.4°C 27.3°F-2.6°C 85% 0.7 mph N1.1 kmh N 2.2 mph3.5 kmh 30.32 in1026.8 mb 0.00 in0.0 mm 0.00 in0.0 mm 0.00 in0.0 mm
04:25 AM 31.1°F-0.5°C 27.1°F-2.7°C 85% 1.6 mph N2.6 kmh N 2.2 mph3.5 kmh 30.32 in1026.8 mb 0.00 in0.0 mm 0.00 in0.0 mm 0.00 in0.0 mm
04:30 AM 30.9°F-0.6°C 27.0°F-2.8°C 85% 0.7 mph N1.1 kmh N 2.2 mph3.5 kmh 30.32 in1026.8 mb 0.00 in0.0 mm 0.00 in0.0 mm 0.00 in0.0 mm
04:35 AM 30.9°F-0.6°C 27.0°F-2.8°C 85% 1.6 mph NE2.6 kmh NE 3.1 mph5.0 kmh 30.32 in1026.8 mb 0.00 in0.0 mm 0.00 in0.0 mm 0.00 in0.0 mm
04:40 AM 31.1°F-0.5°C 27.4°F-2.6°C 86% 2.2 mph E3.5 kmh E 3.1 mph5.0 kmh 30.33 in1027.1 mb 0.00 in0.0 mm 0.00 in0.0 mm 0.00 in0.0 mm
04:45 AM 31.3°F-0.4°C 27.6°F-2.4°C 86% 1.6 mph E2.6 kmh E 3.1 mph5.0 kmh 30.33 in1027.1 mb 0.00 in0.0 mm 0.00 in0.0 mm 0.00 in0.0 mm
04:50 AM 31.1°F-0.5°C 27.4°F-2.6°C 86% 0.7 mph ENE1.1 kmh ENE 3.1 mph5.0 kmh 30.32 in1026.8 mb 0.00 in0.0 mm 0.00 in0.0 mm 0.00 in0.0 mm
04:55 AM 31.1°F-0.5°C 27.4°F-2.6°C 86% Calm Calm 2.2 mph3.5 kmh 30.33 in1027.1 mb 0.00 in0.0 mm 0.00 in0.0 mm 0.00 in0.0 mm
05:00 AM 31.1°F-0.5°C 27.4°F-2.6°C 86% 2.2 mph E3.5 kmh E 3.1 mph5.0 kmh 30.33 in1027.1 mb 0.00 in0.0 mm 0.00 in0.0 mm 0.00 in0.0 mm
05:05 AM 31.1°F-0.5°C 27.4°F-2.6°C 86% 1.6 mph ESE2.6 kmh ESE 3.1 mph5.0 kmh 30.33 in1027.1 mb 0.00 in0.0 mm 0.00 in0.0 mm 0.00 in0.0 mm
05:10 AM 30.9°F-0.6°C 27.2°F-2.7°C 86% 1.6 mph E2.6 kmh E 3.8 mph6.1 kmh 30.33 in1027.1 mb 0.00 in0.0 mm 0.00 in0.0 mm 0.00 in0.0 mm
05:15 AM 30.9°F-0.6°C 27.2°F-2.7°C 86% 1.6 mph E2.6 kmh E 3.8 mph6.1 kmh 30.33 in1027.1 mb 0.00 in0.0 mm 0.00 in0.0 mm 0.00 in0.0 mm
05:20 AM 30.9°F-0.6°C 27.2°F-2.7°C 86% 2.2 mph ENE3.5 kmh ENE 3.8 mph6.1 kmh 30.33 in1027.1 mb 0.00 in0.0 mm 0.00 in0.0 mm 0.00 in0.0 mm
05:25 AM 31.1°F-0.5°C 27.7°F-2.4°C 87% 1.6 mph NE2.6 kmh NE 3.8 mph6.1 kmh 30.34 in1027.4 mb 0.00 in0.0 mm 0.00 in0.0 mm 0.00 in0.0 mm
05:30 AM 31.1°F-0.5°C 27.7°F-2.4°C 87% 0.7 mph NE1.1 kmh NE 3.1 mph5.0 kmh 30.33 in1027.1 mb 0.00 in0.0 mm 0.00 in0.0 mm 0.00 in0.0 mm
05:35 AM 31.1°F-0.5°C 27.7°F-2.4°C 87% 1.6 mph ENE2.6 kmh ENE 3.1 mph5.0 kmh 30.33 in1027.1 mb 0.00 in0.0 mm 0.00 in0.0 mm 0.00 in0.0 mm
05:40 AM 30.9°F-0.6°C 27.5°F-2.5°C 87% 0.7 mph NE1.1 kmh NE 3.1 mph5.0 kmh 30.34 in1027.4 mb 0.00 in0.0 mm 0.00 in0.0 mm 0.00 in0.0 mm
05:45 AM 30.9°F-0.6°C 27.5°F-2.5°C 87% Calm Calm 3.1 mph5.0 kmh 30.34 in1027.4 mb 0.00 in0.0 mm 0.00 in0.0 mm 0.00 in0.0 mm
05:50 AM 30.7°F-0.7°C 27.3°F-2.6°C 87% 0.7 mph ENE1.1 kmh ENE 2.2 mph3.5 kmh 30.34 in1027.4 mb 0.00 in0.0 mm 0.00 in0.0 mm 0.00 in0.0 mm
05:55 AM 30.7°F-0.7°C 27.3°F-2.6°C 87% 0.7 mph E1.1 kmh E 2.2 mph3.5 kmh 30.34 in1027.4 mb 0.00 in0.0 mm 0.00 in0.0 mm 0.00 in0.0 mm
06:00 AM 30.7°F-0.7°C 27.3°F-2.6°C 87% 0.7 mph E1.1 kmh E 2.2 mph3.5 kmh 30.34 in1027.4 mb 0.00 in0.0 mm 0.00 in0.0 mm 0.00 in0.0 mm
06:05 AM 30.7°F-0.7°C 27.3°F-2.6°C 87% 0.7 mph E1.1 kmh E 1.6 mph2.6 kmh 30.34 in1027.4 mb 0.00 in0.0 mm 0.00 in0.0 mm 0.00 in0.0 mm
06:10 AM 30.6°F-0.8°C 27.2°F-2.7°C 87% 1.6 mph ENE2.6 kmh ENE 3.1 mph5.0 kmh 30.34 in1027.4 mb 0.00 in0.0 mm 0.00 in0.0 mm 0.00 in0.0 mm
06:15 AM 30.4°F-0.9°C 27.0°F-2.8°C 87% 1.6 mph NE2.6 kmh NE 3.1 mph5.0 kmh 30.34 in1027.4 mb 0.00 in0.0 mm 0.00 in0.0 mm 0.00 in0.0 mm
06:20 AM 30.4°F-0.9°C 27.0°F-2.8°C 87% 1.6 mph NE2.6 kmh NE 3.1 mph5.0 kmh 30.35 in1027.8 mb 0.00 in0.0 mm 0.00 in0.0 mm 0.00 in0.0 mm
06:25 AM 30.2°F-1.0°C 26.8°F-2.9°C 87% Calm Calm 3.1 mph5.0 kmh 30.34 in1027.4 mb 0.00 in0.0 mm 0.00 in0.0 mm 0.00 in0.0 mm
06:30 AM 30.2°F-1.0°C 26.8°F-2.9°C 87% Calm Calm 3.1 mph5.0 kmh 30.35 in1027.8 mb 0.00 in0.0 mm 0.00 in0.0 mm 0.00 in0.0 mm
06:35 AM 30.0°F-1.1°C 26.9°F-2.8°C 88% Calm Calm 2.2 mph3.5 kmh 30.35 in1027.8 mb 0.00 in0.0 mm 0.00 in0.0 mm 0.00 in0.0 mm
06:40 AM 30.0°F-1.1°C 26.9°F-2.8°C 88% 0.7 mph NE1.1 kmh NE 2.2 mph3.5 kmh 30.35 in1027.8 mb 0.00 in0.0 mm 0.00 in0.0 mm 0.00 in0.0 mm
06:45 AM 30.0°F-1.1°C 26.9°F-2.8°C 88% 1.6 mph E2.6 kmh E 2.2 mph3.5 kmh 30.35 in1027.8 mb 0.00 in0.0 mm 0.00 in0.0 mm 0.00 in0.0 mm
06:50 AM 30.2°F-1.0°C 26.8°F-2.9°C 87% 2.2 mph E3.5 kmh E 3.8 mph6.1 kmh 30.35 in1027.8 mb 0.00 in0.0 mm 0.00 in0.0 mm 0.00 in0.0 mm
06:55 AM 30.0°F-1.1°C 26.9°F-2.8°C 88% 0.7 mph E1.1 kmh E 3.8 mph6.1 kmh 30.36 in1028.1 mb 0.00 in0.0 mm 0.00 in0.0 mm 0.00 in0.0 mm
07:00 AM 30.0°F-1.1°C 26.9°F-2.8°C 88% Calm Calm 3.1 mph5.0 kmh 30.36 in1028.1 mb 0.00 in0.0 mm 0.00 in0.0 mm 0.00 in0.0 mm
07:05 AM 30.0°F-1.1°C 26.9°F-2.8°C 88% 0.7 mph SW1.1 kmh SW 1.6 mph2.6 kmh 30.36 in1028.1 mb 0.00 in0.0 mm 0.00 in0.0 mm 0.00 in0.0 mm
07:10 AM 30.2°F-1.0°C 26.8°F-2.9°C 87% Calm Calm 1.6 mph2.6 kmh 30.36 in1028.1 mb 0.00 in0.0 mm 0.00 in0.0 mm 0.00 in0.0 mm
07:15 AM 30.2°F-1.0°C 26.8°F-2.9°C 87% Calm Calm 2.2 mph3.5 kmh 30.37 in1028.4 mb 0.00 in0.0 mm 0.00 in0.0 mm 0.00 in0.0 mm
07:20 AM 30.4°F-0.9°C 27.0°F-2.8°C 87% 2.2 mph SE3.5 kmh SE 3.1 mph5.0 kmh 30.36 in1028.1 mb 0.00 in0.0 mm 0.00 in0.0 mm 0.00 in0.0 mm
07:25 AM 30.6°F-0.8°C 27.4°F-2.6°C 88% 2.2 mph SE3.5 kmh SE 3.8 mph6.1 kmh 30.37 in1028.4 mb 0.00 in0.0 mm 0.00 in0.0 mm 0.00 in0.0 mm
07:30 AM 30.6°F-0.8°C 27.4°F-2.6°C 88% 1.6 mph E2.6 kmh E 3.8 mph6.1 kmh 30.36 in1028.1 mb 0.00 in0.0 mm 0.00 in0.0 mm 0.00 in0.0 mm
07:35 AM 30.4°F-0.9°C 27.0°F-2.8°C 87% 1.6 mph ENE2.6 kmh ENE 3.8 mph6.1 kmh 30.37 in1028.4 mb 0.00 in0.0 mm 0.00 in0.0 mm 0.00 in0.0 mm
07:40 AM 30.2°F-1.0°C 26.8°F-2.9°C 87% 0.7 mph NE1.1 kmh NE 3.8 mph6.1 kmh 30.36 in1028.1 mb 0.00 in0.0 mm 0.00 in0.0 mm 0.00 in0.0 mm
07:45 AM 30.0°F-1.1°C 26.9°F-2.8°C 88% Calm Calm 3.1 mph5.0 kmh 30.36 in1028.1 mb 0.00 in0.0 mm 0.00 in0.0 mm 0.00 in0.0 mm
07:50 AM 29.8°F-1.2°C 26.7°F-2.9°C 88% 1.6 mph NE2.6 kmh NE 3.1 mph5.0 kmh 30.37 in1028.4 mb 0.00 in0.0 mm 0.00 in0.0 mm 0.00 in0.0 mm
07:55 AM 29.8°F-1.2°C 26.7°F-2.9°C 88% Calm Calm 3.1 mph5.0 kmh 30.36 in1028.1 mb 0.00 in0.0 mm 0.00 in0.0 mm 0.00 in0.0 mm
08:00 AM 29.7°F-1.3°C 26.6°F-3.0°C 88% Calm Calm 2.2 mph3.5 kmh 30.37 in1028.4 mb 0.00 in0.0 mm 0.00 in0.0 mm 0.00 in0.0 mm
08:05 AM 29.7°F-1.3°C 26.6°F-3.0°C 88% 1.6 mph N2.6 kmh N 2.2 mph3.5 kmh 30.37 in1028.4 mb 0.00 in0.0 mm 0.00 in0.0 mm 0.00 in0.0 mm
08:10 AM 29.3°F-1.5°C 26.2°F-3.2°C 88% 0.7 mph N1.1 kmh N 2.2 mph3.5 kmh 30.37 in1028.4 mb 0.00 in0.0 mm 0.00 in0.0 mm 0.00 in0.0 mm
08:15 AM 29.3°F-1.5°C 26.2°F-3.2°C 88% 2.2 mph NNE3.5 kmh NNE 3.8 mph6.1 kmh 30.37 in1028.4 mb 0.00 in0.0 mm 0.00 in0.0 mm 0.00 in0.0 mm
08:20 AM 29.5°F-1.4°C 26.4°F-3.1°C 88% 2.2 mph NE3.5 kmh NE 3.8 mph6.1 kmh 30.37 in1028.4 mb 0.00 in0.0 mm 0.00 in0.0 mm 0.00 in0.0 mm
08:25 AM 29.5°F-1.4°C 26.4°F-3.1°C 88% Calm Calm 3.8 mph6.1 kmh 30.38 in1028.8 mb 0.00 in0.0 mm 0.00 in0.0 mm 0.00 in0.0 mm
08:30 AM 29.5°F-1.4°C 26.4°F-3.1°C 88% Calm Calm 3.8 mph6.1 kmh 30.37 in1028.4 mb 0.00 in0.0 mm 0.00 in0.0 mm 0.00 in0.0 mm
08:35 AM 29.7°F-1.3°C 26.6°F-3.0°C 88% Calm Calm 1.6 mph2.6 kmh 30.38 in1028.8 mb 0.00 in0.0 mm 0.00 in0.0 mm 0.00 in0.0 mm
08:40 AM 29.7°F-1.3°C 26.8°F-2.9°C 89% 1.6 mph SE2.6 kmh SE 2.2 mph3.5 kmh 30.38 in1028.8 mb 0.00 in0.0 mm 0.00 in0.0 mm 0.00 in0.0 mm
08:45 AM 29.8°F-1.2°C 27.0°F-2.8°C 89% 1.6 mph SE2.6 kmh SE 2.2 mph3.5 kmh 30.38 in1028.8 mb 0.00 in0.0 mm 0.00 in0.0 mm 0.00 in0.0 mm
08:50 AM 29.8°F-1.2°C 27.0°F-2.8°C 89% 0.7 mph SE1.1 kmh SE 3.1 mph5.0 kmh 30.38 in1028.8 mb 0.00 in0.0 mm 0.00 in0.0 mm 0.00 in0.0 mm
08:55 AM 29.8°F-1.2°C 27.0°F-2.8°C 89% 1.6 mph SE2.6 kmh SE 3.1 mph5.0 kmh 30.39 in1029.1 mb 0.00 in0.0 mm 0.00 in0.0 mm 0.00 in0.0 mm
09:00 AM 29.8°F-1.2°C 27.0°F-2.8°C 89% 0.7 mph ESE1.1 kmh ESE 3.1 mph5.0 kmh 30.39 in1029.1 mb 0.00 in0.0 mm 0.00 in0.0 mm 0.00 in0.0 mm
09:05 AM 30.0°F-1.1°C 27.2°F-2.7°C 89% 0.7 mph SE1.1 kmh SE 3.1 mph5.0 kmh 30.39 in1029.1 mb 0.00 in0.0 mm 0.00 in0.0 mm 0.00 in0.0 mm
09:10 AM 30.2°F-1.0°C 27.1°F-2.7°C 88% 0.7 mph ESE1.1 kmh ESE 2.2 mph3.5 kmh 30.39 in1029.1 mb 0.00 in0.0 mm 0.00 in0.0 mm 0.00 in0.0 mm
09:15 AM 30.4°F-0.9°C 27.3°F-2.6°C 88% Calm Calm 2.2 mph3.5 kmh 30.40 in1029.5 mb 0.00 in0.0 mm 0.00 in0.0 mm 0.00 in0.0 mm
09:20 AM 30.6°F-0.8°C 27.4°F-2.6°C 88% Calm Calm 2.2 mph3.5 kmh 30.40 in1029.5 mb 0.00 in0.0 mm 0.00 in0.0 mm 0.00 in0.0 mm
09:25 AM 31.3°F-0.4°C 28.2°F-2.1°C 88% Calm Calm 1.6 mph2.6 kmh 30.40 in1029.5 mb 0.00 in0.0 mm 0.00 in0.0 mm 0.00 in0.0 mm
09:30 AM 32.2°F0.1°C 29.0°F-1.7°C 88% Calm Calm -- 30.40 in1029.5 mb 0.00 in0.0 mm 0.00 in0.0 mm 0.00 in0.0 mm
09:35 AM 33.3°F0.7°C 30.1°F-1.1°C 88% 0.7 mph N1.1 kmh N 1.6 mph2.6 kmh 30.40 in1029.5 mb 0.00 in0.0 mm 0.00 in0.0 mm 0.00 in0.0 mm
09:40 AM 33.8°F1.0°C 30.4°F-0.9°C 87% Calm Calm 1.6 mph2.6 kmh 30.40 in1029.5 mb 0.00 in0.0 mm 0.00 in0.0 mm 0.00 in0.0 mm
09:45 AM 34.2°F1.2°C 30.7°F-0.7°C 87% 0.7 mph N1.1 kmh N 1.6 mph2.6 kmh 30.40 in1029.5 mb 0.00 in0.0 mm 0.00 in0.0 mm 0.00 in0.0 mm
09:50 AM 34.3°F1.3°C 30.9°F-0.6°C 87% 0.7 mph N1.1 kmh N 1.6 mph2.6 kmh 30.40 in1029.5 mb 0.00 in0.0 mm 0.00 in0.0 mm 0.00 in0.0 mm
09:55 AM 34.7°F1.5°C 31.0°F-0.6°C 86% 0.7 mph N1.1 kmh N 2.2 mph3.5 kmh 30.41 in1029.8 mb 0.00 in0.0 mm 0.00 in0.0 mm 0.00 in0.0 mm
10:00 AM 35.2°F1.8°C 31.5°F-0.3°C 86% Calm Calm 2.2 mph3.5 kmh 30.40 in1029.5 mb 0.00 in0.0 mm 0.00 in0.0 mm 0.00 in0.0 mm
10:05 AM 35.6°F2.0°C 31.5°F-0.3°C 85% 0.7 mph WNW1.1 kmh WNW 2.2 mph3.5 kmh 30.40 in1029.5 mb 0.00 in0.0 mm 0.00 in0.0 mm 0.00 in0.0 mm
10:10 AM 35.8°F2.1°C 31.7°F-0.2°C 85% 2.2 mph W3.5 kmh W 3.1 mph5.0 kmh 30.41 in1029.8 mb 0.00 in0.0 mm 0.00 in0.0 mm 0.00 in0.0 mm
10:15 AM 35.8°F2.1°C 31.4°F-0.3°C 84% 2.2 mph WNW3.5 kmh WNW 3.8 mph6.1 kmh 30.41 in1029.8 mb 0.00 in0.0 mm 0.00 in0.0 mm 0.00 in0.0 mm
10:20 AM 36.1°F2.3°C 31.8°F-0.1°C 84% 2.2 mph WNW3.5 kmh WNW 4.5 mph7.2 kmh 30.41 in1029.8 mb 0.00 in0.0 mm 0.00 in0.0 mm 0.00 in0.0 mm
10:25 AM 36.5°F2.5°C 31.8°F-0.1°C 83% 1.6 mph W2.6 kmh W 4.5 mph7.2 kmh 30.41 in1029.8 mb 0.00 in0.0 mm 0.00 in0.0 mm 0.00 in0.0 mm
10:30 AM 36.9°F2.7°C 32.2°F0.1°C 83% 2.2 mph WNW3.5 kmh WNW 3.8 mph6.1 kmh 30.41 in1029.8 mb 0.00 in0.0 mm 0.00 in0.0 mm 0.00 in0.0 mm
10:35 AM 37.4°F3.0°C 33.6°F0.9°C 86% 0.7 mph WNW1.1 kmh WNW 3.8 mph6.1 kmh 30.41 in1029.8 mb 0.00 in0.0 mm 0.00 in0.0 mm 0.00 in0.0 mm
10:40 AM 38.1°F3.4°C 34.3°F1.3°C 86% 0.7 mph W1.1 kmh W 3.8 mph6.1 kmh 30.41 in1029.8 mb 0.00 in0.0 mm 0.00 in0.0 mm 0.00 in0.0 mm
10:45 AM 38.7°F3.7°C 34.5°F1.4°C 85% 1.6 mph W2.6 kmh W 3.8 mph6.1 kmh 30.41 in1029.8 mb 0.00 in0.0 mm 0.00 in0.0 mm 0.00 in0.0 mm
10:50 AM 39.2°F4.0°C 34.8°F1.6°C 84% Calm Calm 3.8 mph6.1 kmh 30.41 in1029.8 mb 0.00 in0.0 mm 0.00 in0.0 mm 0.00 in0.0 mm
10:55 AM 39.9°F4.4°C 34.9°F1.6°C 82% 0.7 mph SW1.1 kmh SW 3.1 mph5.0 kmh 30.41 in1029.8 mb 0.00 in0.0 mm 0.00 in0.0 mm 0.00 in0.0 mm
11:00 AM 40.3°F4.6°C 34.6°F1.4°C 80% 0.7 mph W1.1 kmh W 3.1 mph5.0 kmh 30.41 in1029.8 mb 0.00 in0.0 mm 0.00 in0.0 mm 0.00 in0.0 mm
11:05 AM 40.8°F4.9°C 34.8°F1.6°C 79% 0.7 mph W1.1 kmh W 2.2 mph3.5 kmh 30.41 in1029.8 mb 0.00 in0.0 mm 0.00 in0.0 mm 0.00 in0.0 mm
11:10 AM 41.2°F5.1°C 34.2°F1.2°C 76% 0.7 mph W1.1 kmh W 2.2 mph3.5 kmh 30.41 in1029.8 mb 0.00 in0.0 mm 0.00 in0.0 mm 0.00 in0.0 mm
11:15 AM 41.5°F5.3°C 34.5°F1.4°C 76% Calm Calm 3.1 mph5.0 kmh 30.41 in1029.8 mb 0.00 in0.0 mm 0.00 in0.0 mm 0.00 in0.0 mm
11:20 AM 41.7°F5.4°C 34.4°F1.3°C 75% 1.6 mph WNW2.6 kmh WNW 3.1 mph5.0 kmh 30.41 in1029.8 mb 0.00 in0.0 mm 0.00 in0.0 mm 0.00 in0.0 mm
11:25 AM 41.9°F5.5°C 34.2°F1.2°C 74% 0.7 mph WNW1.1 kmh WNW 3.1 mph5.0 kmh 30.41 in1029.8 mb 0.00 in0.0 mm 0.00 in0.0 mm 0.00 in0.0 mm
11:30 AM 42.4°F5.8°C 34.8°F1.6°C 74% 0.7 mph WSW1.1 kmh WSW 2.2 mph3.5 kmh 30.41 in1029.8 mb 0.00 in0.0 mm 0.00 in0.0 mm 0.00 in0.0 mm
11:35 AM 42.8°F6.0°C 34.4°F1.3°C 72% 1.6 mph WSW2.6 kmh WSW 3.1 mph5.0 kmh 30.41 in1029.8 mb 0.00 in0.0 mm 0.00 in0.0 mm 0.00 in0.0 mm
11:40 AM 43.3°F6.3°C 34.9°F1.6°C 72% 1.6 mph WSW2.6 kmh WSW 3.1 mph5.0 kmh 30.41 in1029.8 mb 0.00 in0.0 mm 0.00 in0.0 mm 0.00 in0.0 mm
11:45 AM 43.5°F6.4°C 34.8°F1.6°C 71% 0.7 mph WNW1.1 kmh WNW 2.2 mph3.5 kmh 30.41 in1029.8 mb 0.00 in0.0 mm 0.00 in0.0 mm 0.00 in0.0 mm
11:50 AM 43.5°F6.4°C 34.0°F1.1°C 69% 3.1 mph S5.0 kmh S 4.5 mph7.2 kmh 30.41 in1029.8 mb 0.00 in0.0 mm 0.00 in0.0 mm 0.00 in0.0 mm
11:55 AM 43.5°F6.4°C 33.7°F0.9°C 68% 0.7 mph S1.1 kmh S 4.5 mph7.2 kmh 30.42 in1030.1 mb 0.00 in0.0 mm 0.00 in0.0 mm 0.00 in0.0 mm
12:00 PM 44.2°F6.8°C 34.7°F1.5°C 69% 0.7 mph SW1.1 kmh SW 3.8 mph6.1 kmh 30.41 in1029.8 mb 0.00 in0.0 mm 0.00 in0.0 mm 0.00 in0.0 mm
12:05 PM 44.8°F7.1°C 34.5°F1.4°C 67% 3.1 mph SW5.0 kmh SW 4.5 mph7.2 kmh 30.41 in1029.8 mb 0.00 in0.0 mm 0.00 in0.0 mm 0.00 in0.0 mm
12:10 PM 45.1°F7.3°C 34.5°F1.4°C 66% 1.6 mph SW2.6 kmh SW 4.5 mph7.2 kmh 30.41 in1029.8 mb 0.00 in0.0 mm 0.00 in0.0 mm 0.00 in0.0 mm
12:15 PM 45.7°F7.6°C 34.6°F1.4°C 65% 1.6 mph SW2.6 kmh SW 4.5 mph7.2 kmh 30.42 in1030.1 mb 0.00 in0.0 mm 0.00 in0.0 mm 0.00 in0.0 mm
12:20 PM 46.2°F7.9°C 35.1°F1.7°C 65% 1.6 mph WSW2.6 kmh WSW 3.8 mph6.1 kmh 30.42 in1030.1 mb 0.00 in0.0 mm 0.00 in0.0 mm 0.00 in0.0 mm
12:25 PM 46.6°F8.1°C 35.5°F1.9°C 65% 1.6 mph WNW2.6 kmh WNW 3.8 mph6.1 kmh 30.41 in1029.8 mb 0.00 in0.0 mm 0.00 in0.0 mm 0.00 in0.0 mm
12:30 PM 47.1°F8.4°C 36.0°F2.2°C 65% 1.6 mph W2.6 kmh W 3.1 mph5.0 kmh 30.41 in1029.8 mb 0.00 in0.0 mm 0.00 in0.0 mm 0.00 in0.0 mm
12:35 PM 47.8°F8.8°C 35.9°F2.2°C 63% 0.7 mph SSW1.1 kmh SSW 4.5 mph7.2 kmh 30.42 in1030.1 mb 0.00 in0.0 mm 0.00 in0.0 mm 0.00 in0.0 mm
12:40 PM 48.6°F9.2°C 36.1°F2.3°C 62% 1.6 mph SW2.6 kmh SW 4.5 mph7.2 kmh 30.41 in1029.8 mb 0.00 in0.0 mm 0.00 in0.0 mm 0.00 in0.0 mm
12:45 PM 48.9°F9.4°C 35.7°F2.1°C 60% 2.2 mph WSW3.5 kmh WSW 5.4 mph8.7 kmh 30.41 in1029.8 mb 0.00 in0.0 mm 0.00 in0.0 mm 0.00 in0.0 mm
12:50 PM 48.9°F9.4°C 34.4°F1.3°C 57% 3.1 mph W5.0 kmh W 5.4 mph8.7 kmh 30.41 in1029.8 mb 0.00 in0.0 mm 0.00 in0.0 mm 0.00 in0.0 mm
12:55 PM 48.6°F9.2°C 34.0°F1.1°C 57% 3.1 mph WSW5.0 kmh WSW 5.4 mph8.7 kmh 30.41 in1029.8 mb 0.00 in0.0 mm 0.00 in0.0 mm 0.00 in0.0 mm
01:00 PM 48.7°F9.3°C 33.8°F1.0°C 56% 2.2 mph SW3.5 kmh SW 4.5 mph7.2 kmh 30.41 in1029.8 mb 0.00 in0.0 mm 0.00 in0.0 mm 0.00 in0.0 mm
01:05 PM 49.5°F9.7°C 34.0°F1.1°C 55% 0.7 mph SW1.1 kmh SW 4.5 mph7.2 kmh 30.41 in1029.8 mb 0.00 in0.0 mm 0.00 in0.0 mm 0.00 in0.0 mm
01:10 PM 50.0°F10.0°C 34.0°F1.1°C 54% 0.7 mph W1.1 kmh W 3.8 mph6.1 kmh 30.40 in1029.5 mb 0.00 in0.0 mm 0.00 in0.0 mm 0.00 in0.0 mm
01:15 PM 50.4°F10.2°C 33.9°F1.1°C 53% 3.1 mph NNW5.0 kmh NNW 5.4 mph8.7 kmh 30.40 in1029.5 mb 0.00 in0.0 mm 0.00 in0.0 mm 0.00 in0.0 mm
01:20 PM 50.5°F10.3°C 34.1°F1.2°C 53% 2.2 mph N3.5 kmh N 5.4 mph8.7 kmh 30.39 in1029.1 mb 0.00 in0.0 mm 0.00 in0.0 mm 0.00 in0.0 mm
01:25 PM 50.9°F10.5°C 33.4°F0.8°C 51% 0.7 mph NNW1.1 kmh NNW 5.4 mph8.7 kmh 30.39 in1029.1 mb 0.00 in0.0 mm 0.00 in0.0 mm 0.00 in0.0 mm
01:30 PM 51.3°F10.7°C 33.3°F0.7°C 50% Calm Calm 4.5 mph7.2 kmh 30.39 in1029.1 mb 0.00 in0.0 mm 0.00 in0.0 mm 0.00 in0.0 mm
01:35 PM 52.0°F11.1°C 32.4°F0.2°C 47% 1.6 mph ESE2.6 kmh ESE 3.1 mph5.0 kmh 30.39 in1029.1 mb 0.00 in0.0 mm 0.00 in0.0 mm 0.00 in0.0 mm
01:40 PM 52.0°F11.1°C 31.9°F-0.1°C 46% 1.6 mph ESE2.6 kmh ESE 3.8 mph6.1 kmh 30.39 in1029.1 mb 0.00 in0.0 mm 0.00 in0.0 mm 0.00 in0.0 mm
01:45 PM 52.0°F11.1°C 31.3°F-0.4°C 45% 0.7 mph S1.1 kmh S 3.8 mph6.1 kmh 30.38 in1028.8 mb 0.00 in0.0 mm 0.00 in0.0 mm 0.00 in0.0 mm
01:50 PM 51.8°F11.0°C 31.7°F-0.2°C 46% 2.2 mph W3.5 kmh W 3.8 mph6.1 kmh 30.38 in1028.8 mb 0.00 in0.0 mm 0.00 in0.0 mm 0.00 in0.0 mm
01:55 PM 51.8°F11.0°C 32.2°F0.1°C 47% 3.1 mph NW5.0 kmh NW 5.4 mph8.7 kmh 30.38 in1028.8 mb 0.00 in0.0 mm 0.00 in0.0 mm 0.00 in0.0 mm
02:00 PM 51.6°F10.9°C 32.6°F0.3°C 48% 3.1 mph NW5.0 kmh NW 6.0 mph9.7 kmh 30.38 in1028.8 mb 0.00 in0.0 mm 0.00 in0.0 mm 0.00 in0.0 mm
02:05 PM 51.4°F10.8°C 31.9°F-0.1°C 47% 2.2 mph W3.5 kmh W 6.0 mph9.7 kmh 30.38 in1028.8 mb 0.00 in0.0 mm 0.00 in0.0 mm 0.00 in0.0 mm
02:10 PM 51.3°F10.7°C 31.7°F-0.2°C 47% 2.2 mph W3.5 kmh W 4.5 mph7.2 kmh 30.38 in1028.8 mb 0.00 in0.0 mm 0.00 in0.0 mm 0.00 in0.0 mm
02:15 PM 51.4°F10.8°C 32.4°F0.2°C 48% 0.7 mph W1.1 kmh W 3.8 mph6.1 kmh 30.38 in1028.8 mb 0.00 in0.0 mm 0.00 in0.0 mm 0.00 in0.0 mm
02:20 PM 51.8°F11.0°C 31.7°F-0.2°C 46% 0.7 mph SSW1.1 kmh SSW 3.8 mph6.1 kmh 30.38 in1028.8 mb 0.00 in0.0 mm 0.00 in0.0 mm 0.00 in0.0 mm
02:25 PM 52.2°F11.2°C 31.5°F-0.3°C 45% 0.7 mph SW1.1 kmh SW 2.2 mph3.5 kmh 30.38 in1028.8 mb 0.00 in0.0 mm 0.00 in0.0 mm 0.00 in0.0 mm
02:30 PM 52.7°F11.5°C 31.4°F-0.3°C 44% 1.6 mph SW2.6 kmh SW 3.1 mph5.0 kmh 30.37 in1028.4 mb 0.00 in0.0 mm 0.00 in0.0 mm 0.00 in0.0 mm
02:35 PM 53.2°F11.8°C 31.9°F-0.1°C 44% Calm Calm 3.1 mph5.0 kmh 30.38 in1028.8 mb 0.00 in0.0 mm 0.00 in0.0 mm 0.00 in0.0 mm
02:40 PM 53.8°F12.1°C 31.8°F-0.1°C 43% 0.7 mph NW1.1 kmh NW 3.1 mph5.0 kmh 30.37 in1028.4 mb 0.00 in0.0 mm 0.00 in0.0 mm 0.00 in0.0 mm
02:45 PM 54.0°F12.2°C 32.0°F0.0°C 43% 3.1 mph W5.0 kmh W 4.5 mph7.2 kmh 30.37 in1028.4 mb 0.00 in0.0 mm 0.00 in0.0 mm 0.00 in0.0 mm
02:50 PM 53.6°F12.0°C 31.1°F-0.5°C 42% 2.2 mph W3.5 kmh W 5.4 mph8.7 kmh 30.37 in1028.4 mb 0.00 in0.0 mm 0.00 in0.0 mm 0.00 in0.0 mm
02:55 PM 53.8°F12.1°C 31.2°F-0.4°C 42% Calm Calm 5.4 mph8.7 kmh 30.37 in1028.4 mb 0.00 in0.0 mm 0.00 in0.0 mm 0.00 in0.0 mm
03:00 PM 54.1°F12.3°C 31.0°F-0.6°C 41% Calm Calm 3.8 mph6.1 kmh 30.37 in1028.4 mb 0.00 in0.0 mm 0.00 in0.0 mm 0.00 in0.0 mm
03:05 PM 54.5°F12.5°C 31.3°F-0.4°C 41% 2.2 mph WSW3.5 kmh WSW 4.5 mph7.2 kmh 30.36 in1028.1 mb 0.00 in0.0 mm 0.00 in0.0 mm 0.00 in0.0 mm
03:10 PM 54.5°F12.5°C 30.1°F-1.1°C 39% 3.1 mph S5.0 kmh S 6.0 mph9.7 kmh 30.36 in1028.1 mb 0.00 in0.0 mm 0.00 in0.0 mm 0.00 in0.0 mm
03:15 PM 54.5°F12.5°C 28.8°F-1.8°C 37% 1.6 mph S2.6 kmh S 6.0 mph9.7 kmh 30.35 in1027.8 mb 0.00 in0.0 mm 0.00 in0.0 mm 0.00 in0.0 mm
03:20 PM 54.7°F12.6°C 29.6°F-1.3°C 38% 3.8 mph SSE6.1 kmh SSE 5.4 mph8.7 kmh 30.36 in1028.1 mb 0.00 in0.0 mm 0.00 in0.0 mm 0.00 in0.0 mm
03:25 PM 54.7°F12.6°C 28.9°F-1.7°C 37% 1.6 mph SE2.6 kmh SE 5.4 mph8.7 kmh 30.35 in1027.8 mb 0.00 in0.0 mm 0.00 in0.0 mm 0.00 in0.0 mm
03:30 PM 55.0°F12.8°C 28.6°F-1.9°C 36% 3.8 mph SE6.1 kmh SE 5.4 mph8.7 kmh 30.35 in1027.8 mb 0.00 in0.0 mm 0.00 in0.0 mm 0.00 in0.0 mm
03:35 PM 55.2°F12.9°C 27.4°F-2.6°C 34% 3.1 mph SE5.0 kmh SE 6.9 mph11.1 kmh 30.35 in1027.8 mb 0.00 in0.0 mm 0.00 in0.0 mm 0.00 in0.0 mm
03:40 PM 55.2°F12.9°C 27.4°F-2.6°C 34% 2.2 mph SSE3.5 kmh SSE 6.9 mph11.1 kmh 30.36 in1028.1 mb 0.00 in0.0 mm 0.00 in0.0 mm 0.00 in0.0 mm
03:45 PM 55.6°F13.1°C 28.4°F-2.0°C 35% Calm Calm 4.5 mph7.2 kmh 30.35 in1027.8 mb 0.00 in0.0 mm 0.00 in0.0 mm 0.00 in0.0 mm
03:50 PM 55.8°F13.2°C 28.5°F-1.9°C 35% 2.2 mph S3.5 kmh S 4.5 mph7.2 kmh 30.35 in1027.8 mb 0.00 in0.0 mm 0.00 in0.0 mm 0.00 in0.0 mm
03:55 PM 56.1°F13.4°C 28.9°F-1.7°C 35% 0.7 mph S1.1 kmh S 4.5 mph7.2 kmh 30.35 in1027.8 mb 0.00 in0.0 mm 0.00 in0.0 mm 0.00 in0.0 mm
04:00 PM 56.3°F13.5°C 29.0°F-1.7°C 35% 3.1 mph WSW5.0 kmh WSW 4.5 mph7.2 kmh 30.35 in1027.8 mb 0.00 in0.0 mm 0.00 in0.0 mm 0.00 in0.0 mm
04:05 PM 56.3°F13.5°C 28.3°F-2.1°C 34% 2.2 mph W3.5 kmh W 4.5 mph7.2 kmh 30.35 in1027.8 mb 0.00 in0.0 mm 0.00 in0.0 mm 0.00 in0.0 mm
04:10 PM 56.3°F13.5°C 29.0°F-1.7°C 35% 1.6 mph W2.6 kmh W 5.4 mph8.7 kmh 30.35 in1027.8 mb 0.00 in0.0 mm 0.00 in0.0 mm 0.00 in0.0 mm
04:15 PM 56.3°F13.5°C 27.6°F-2.4°C 33% 0.7 mph W1.1 kmh W 5.4 mph8.7 kmh 30.34 in1027.4 mb 0.00 in0.0 mm 0.00 in0.0 mm 0.00 in0.0 mm
04:20 PM 56.5°F13.6°C 27.0°F-2.8°C 32% 0.7 mph W1.1 kmh W 4.5 mph7.2 kmh 30.35 in1027.8 mb 0.00 in0.0 mm 0.00 in0.0 mm 0.00 in0.0 mm
04:25 PM 56.5°F13.6°C 26.2°F-3.2°C 31% Calm Calm 3.1 mph5.0 kmh 30.34 in1027.4 mb 0.00 in0.0 mm 0.00 in0.0 mm 0.00 in0.0 mm
04:30 PM 56.3°F13.5°C 25.3°F-3.7°C 30% 1.6 mph WNW2.6 kmh WNW 3.1 mph5.0 kmh 30.35 in1027.8 mb 0.00 in0.0 mm 0.00 in0.0 mm 0.00 in0.0 mm
04:35 PM 55.9°F13.3°C 25.8°F-3.4°C 31% 1.6 mph WSW2.6 kmh WSW 3.1 mph5.0 kmh 30.35 in1027.8 mb 0.00 in0.0 mm 0.00 in0.0 mm 0.00 in0.0 mm
04:40 PM 55.6°F13.1°C 25.4°F-3.7°C 31% 3.8 mph WSW6.1 kmh WSW 4.5 mph7.2 kmh 30.34 in1027.4 mb 0.00 in0.0 mm 0.00 in0.0 mm 0.00 in0.0 mm
04:45 PM 55.4°F13.0°C 26.0°F-3.3°C 32% 2.2 mph W3.5 kmh W 4.5 mph7.2 kmh 30.35 in1027.8 mb 0.00 in0.0 mm 0.00 in0.0 mm 0.00 in0.0 mm
04:50 PM 55.2°F12.9°C 25.1°F-3.8°C 31% 1.6 mph WNW2.6 kmh WNW 4.5 mph7.2 kmh 30.34 in1027.4 mb 0.00 in0.0 mm 0.00 in0.0 mm 0.00 in0.0 mm
04:55 PM 55.2°F12.9°C 25.9°F-3.4°C 32% 3.1 mph WNW5.0 kmh WNW 3.8 mph6.1 kmh 30.34 in1027.4 mb 0.00 in0.0 mm 0.00 in0.0 mm 0.00 in0.0 mm
05:00 PM 55.2°F12.9°C 25.9°F-3.4°C 32% 3.1 mph WNW5.0 kmh WNW 4.5 mph7.2 kmh 30.34 in1027.4 mb 0.00 in0.0 mm 0.00 in0.0 mm 0.00 in0.0 mm
05:05 PM 55.2°F12.9°C 25.9°F-3.4°C 32% 2.2 mph WNW3.5 kmh WNW 5.4 mph8.7 kmh 30.34 in1027.4 mb 0.00 in0.0 mm 0.00 in0.0 mm 0.00 in0.0 mm
05:10 PM 55.2°F12.9°C 25.9°F-3.4°C 32% 1.6 mph WNW2.6 kmh WNW 5.4 mph8.7 kmh 30.35 in1027.8 mb 0.00 in0.0 mm 0.00 in0.0 mm 0.00 in0.0 mm
05:15 PM 55.2°F12.9°C 25.9°F-3.4°C 32% 0.7 mph W1.1 kmh W 5.4 mph8.7 kmh 30.34 in1027.4 mb 0.00 in0.0 mm 0.00 in0.0 mm 0.00 in0.0 mm
05:20 PM 55.2°F12.9°C 25.9°F-3.4°C 32% 1.6 mph WSW2.6 kmh WSW 5.4 mph8.7 kmh 30.34 in1027.4 mb 0.00 in0.0 mm 0.00 in0.0 mm 0.00 in0.0 mm
05:25 PM 55.2°F12.9°C 25.9°F-3.4°C 32% 3.8 mph SW6.1 kmh SW 5.4 mph8.7 kmh 30.35 in1027.8 mb 0.00 in0.0 mm 0.00 in0.0 mm 0.00 in0.0 mm
05:30 PM 55.2°F12.9°C 25.9°F-3.4°C 32% 3.1 mph SW5.0 kmh SW 5.4 mph8.7 kmh 30.35 in1027.8 mb 0.00 in0.0 mm 0.00 in0.0 mm 0.00 in0.0 mm
05:35 PM 55.4°F13.0°C 27.5°F-2.5°C 34% 1.6 mph WSW2.6 kmh WSW 4.5 mph7.2 kmh 30.34 in1027.4 mb 0.00 in0.0 mm 0.00 in0.0 mm 0.00 in0.0 mm
05:40 PM 55.6°F13.1°C 27.0°F-2.8°C 33% 1.6 mph WSW2.6 kmh WSW 4.5 mph7.2 kmh 30.34 in1027.4 mb 0.00 in0.0 mm 0.00 in0.0 mm 0.00 in0.0 mm
05:45 PM 55.8°F13.2°C 27.1°F-2.7°C 33% 0.7 mph SW1.1 kmh SW 3.8 mph6.1 kmh 30.35 in1027.8 mb 0.00 in0.0 mm 0.00 in0.0 mm 0.00 in0.0 mm
05:50 PM 55.8°F13.2°C 26.4°F-3.1°C 32% 2.2 mph SW3.5 kmh SW 3.8 mph6.1 kmh 30.35 in1027.8 mb 0.00 in0.0 mm 0.00 in0.0 mm 0.00 in0.0 mm
05:55 PM 55.4°F13.0°C 25.3°F-3.7°C 31% 1.6 mph WSW2.6 kmh WSW 3.8 mph6.1 kmh 30.35 in1027.8 mb 0.00 in0.0 mm 0.00 in0.0 mm 0.00 in0.0 mm
06:00 PM 55.0°F12.8°C 25.0°F-3.9°C 31% 2.2 mph WSW3.5 kmh WSW 5.4 mph8.7 kmh 30.35 in1027.8 mb 0.00 in0.0 mm 0.00 in0.0 mm 0.00 in0.0 mm
06:05 PM 54.7°F12.6°C 23.1°F-4.9°C 29% 2.2 mph SW3.5 kmh SW 5.4 mph8.7 kmh 30.35 in1027.8 mb 0.00 in0.0 mm 0.00 in0.0 mm 0.00 in0.0 mm
06:10 PM 54.5°F12.5°C 22.9°F-5.1°C 29% 2.2 mph SW3.5 kmh SW 4.5 mph7.2 kmh 30.35 in1027.8 mb 0.00 in0.0 mm 0.00 in0.0 mm 0.00 in0.0 mm
06:15 PM 54.3°F12.4°C 21.9°F-5.6°C 28% 3.1 mph SSW5.0 kmh SSW 5.4 mph8.7 kmh 30.35 in1027.8 mb 0.00 in0.0 mm 0.00 in0.0 mm 0.00 in0.0 mm
06:20 PM 54.1°F12.3°C 20.9°F-6.2°C 27% 2.2 mph S3.5 kmh S 5.4 mph8.7 kmh 30.36 in1028.1 mb 0.00 in0.0 mm 0.00 in0.0 mm 0.00 in0.0 mm
06:25 PM 54.1°F12.3°C 20.0°F-6.7°C 26% 2.2 mph S3.5 kmh S 4.5 mph7.2 kmh 30.36 in1028.1 mb 0.00 in0.0 mm 0.00 in0.0 mm 0.00 in0.0 mm
06:30 PM 53.8°F12.1°C 19.7°F-6.8°C 26% 0.7 mph SSW1.1 kmh SSW 4.5 mph7.2 kmh 30.36 in1028.1 mb 0.00 in0.0 mm 0.00 in0.0 mm 0.00 in0.0 mm
06:35 PM 53.6°F12.0°C 19.6°F-6.9°C 26% 0.7 mph SSW1.1 kmh SSW 4.5 mph7.2 kmh 30.36 in1028.1 mb 0.00 in0.0 mm 0.00 in0.0 mm 0.00 in0.0 mm
06:40 PM 53.4°F11.9°C 20.3°F-6.5°C 27% Calm Calm 3.1 mph5.0 kmh 30.36 in1028.1 mb 0.00 in0.0 mm 0.00 in0.0 mm 0.00 in0.0 mm
06:45 PM 53.1°F11.7°C 20.8°F-6.2°C 28% 1.6 mph S2.6 kmh S 2.2 mph3.5 kmh 30.36 in1028.1 mb 0.00 in0.0 mm 0.00 in0.0 mm 0.00 in0.0 mm
06:50 PM 52.9°F11.6°C 20.7°F-6.3°C 28% 0.7 mph S1.1 kmh S 2.2 mph3.5 kmh 30.37 in1028.4 mb 0.00 in0.0 mm 0.00 in0.0 mm 0.00 in0.0 mm
06:55 PM 52.3°F11.3°C 21.8°F-5.7°C 30% Calm Calm 2.2 mph3.5 kmh 30.37 in1028.4 mb 0.00 in0.0 mm 0.00 in0.0 mm 0.00 in0.0 mm
07:00 PM 51.8°F11.0°C 23.6°F-4.7°C 33% 0.7 mph S1.1 kmh S 1.6 mph2.6 kmh 30.37 in1028.4 mb 0.00 in0.0 mm 0.00 in0.0 mm 0.00 in0.0 mm
07:05 PM 51.3°F10.7°C 24.6°F-4.1°C 35% Calm Calm 1.6 mph2.6 kmh 30.37 in1028.4 mb 0.00 in0.0 mm 0.00 in0.0 mm 0.00 in0.0 mm
07:10 PM 50.5°F10.3°C 25.3°F-3.7°C 37% Calm Calm 1.6 mph2.6 kmh 30.37 in1028.4 mb 0.00 in0.0 mm 0.00 in0.0 mm 0.00 in0.0 mm
07:15 PM 49.8°F9.9°C 26.5°F-3.1°C 40% 0.7 mph S1.1 kmh S 1.6 mph2.6 kmh 30.38 in1028.8 mb 0.00 in0.0 mm 0.00 in0.0 mm 0.00 in0.0 mm
07:20 PM 49.1°F9.5°C 27.6°F-2.4°C 43% 1.6 mph E2.6 kmh E 2.2 mph3.5 kmh 30.38 in1028.8 mb 0.00 in0.0 mm 0.00 in0.0 mm 0.00 in0.0 mm
07:25 PM 48.4°F9.1°C 27.5°F-2.5°C 44% Calm Calm 2.2 mph3.5 kmh 30.38 in1028.8 mb 0.00 in0.0 mm 0.00 in0.0 mm 0.00 in0.0 mm
07:30 PM 47.8°F8.8°C 28.1°F-2.2°C 46% 2.2 mph E3.5 kmh E 3.1 mph5.0 kmh 30.38 in1028.8 mb 0.00 in0.0 mm 0.00 in0.0 mm 0.00 in0.0 mm
07:35 PM 47.7°F8.7°C 27.9°F-2.3°C 46% 0.7 mph E1.1 kmh E 4.5 mph7.2 kmh 30.39 in1029.1 mb 0.00 in0.0 mm 0.00 in0.0 mm 0.00 in0.0 mm
07:40 PM 47.3°F8.5°C 28.6°F-1.9°C 48% 2.2 mph ENE3.5 kmh ENE 4.5 mph7.2 kmh 30.38 in1028.8 mb 0.00 in0.0 mm 0.00 in0.0 mm 0.00 in0.0 mm
07:45 PM 46.9°F8.3°C 29.8°F-1.2°C 51% 1.6 mph E2.6 kmh E 4.5 mph7.2 kmh 30.39 in1029.1 mb 0.00 in0.0 mm 0.00 in0.0 mm 0.00 in0.0 mm
07:50 PM 46.8°F8.2°C 31.0°F-0.6°C 54% 1.6 mph E2.6 kmh E 4.5 mph7.2 kmh 30.39 in1029.1 mb 0.00 in0.0 mm 0.00 in0.0 mm 0.00 in0.0 mm
07:55 PM 46.6°F8.1°C 31.3°F-0.4°C 55% 0.7 mph NE1.1 kmh NE 3.1 mph5.0 kmh 30.39 in1029.1 mb 0.00 in0.0 mm 0.00 in0.0 mm 0.00 in0.0 mm
08:00 PM 46.2°F7.9°C 30.5°F-0.8°C 54% 1.6 mph NE2.6 kmh NE 3.1 mph5.0 kmh 30.39 in1029.1 mb 0.00 in0.0 mm 0.00 in0.0 mm 0.00 in0.0 mm
08:05 PM 46.0°F7.8°C 30.8°F-0.7°C 55% 1.6 mph E2.6 kmh E 4.5 mph7.2 kmh 30.39 in1029.1 mb 0.00 in0.0 mm 0.00 in0.0 mm 0.00 in0.0 mm
08:10 PM 46.0°F7.8°C 31.2°F-0.4°C 56% 1.6 mph E2.6 kmh E 4.5 mph7.2 kmh 30.39 in1029.1 mb 0.00 in0.0 mm 0.00 in0.0 mm 0.00 in0.0 mm
08:15 PM 45.7°F7.6°C 30.5°F-0.8°C 55% 0.7 mph ENE1.1 kmh ENE 3.8 mph6.1 kmh 30.39 in1029.1 mb 0.00 in0.0 mm 0.00 in0.0 mm 0.00 in0.0 mm
08:20 PM 45.3°F7.4°C 30.1°F-1.1°C 55% 2.2 mph NE3.5 kmh NE 3.8 mph6.1 kmh 30.39 in1029.1 mb 0.00 in0.0 mm 0.00 in0.0 mm 0.00 in0.0 mm
08:25 PM 44.8°F7.1°C 30.1°F-1.1°C 56% 2.2 mph NE3.5 kmh NE 4.5 mph7.2 kmh 30.40 in1029.5 mb 0.00 in0.0 mm 0.00 in0.0 mm 0.00 in0.0 mm
08:30 PM 44.2°F6.8°C 30.4°F-0.9°C 58% 0.7 mph NE1.1 kmh NE 4.5 mph7.2 kmh 30.40 in1029.5 mb 0.00 in0.0 mm 0.00 in0.0 mm 0.00 in0.0 mm
08:35 PM 43.9°F6.6°C 30.9°F-0.6°C 60% 1.6 mph NE2.6 kmh NE 3.8 mph6.1 kmh 30.40 in1029.5 mb 0.00 in0.0 mm 0.00 in0.0 mm 0.00 in0.0 mm
08:40 PM 43.3°F6.3°C 31.2°F-0.4°C 62% 2.2 mph NE3.5 kmh NE 3.8 mph6.1 kmh 30.40 in1029.5 mb 0.00 in0.0 mm 0.00 in0.0 mm 0.00 in0.0 mm
08:45 PM 43.0°F6.1°C 30.9°F-0.6°C 62% 2.2 mph NE3.5 kmh NE 5.4 mph8.7 kmh 30.40 in1029.5 mb 0.00 in0.0 mm 0.00 in0.0 mm 0.00 in0.0 mm
08:50 PM 42.6°F5.9°C 31.3°F-0.4°C 64% 0.7 mph NE1.1 kmh NE 5.4 mph8.7 kmh 30.39 in1029.1 mb 0.00 in0.0 mm 0.00 in0.0 mm 0.00 in0.0 mm
08:55 PM 42.4°F5.8°C 31.1°F-0.5°C 64% 1.6 mph NE2.6 kmh NE 3.8 mph6.1 kmh 30.40 in1029.5 mb 0.00 in0.0 mm 0.00 in0.0 mm 0.00 in0.0 mm
09:00 PM 42.3°F5.7°C 31.0°F-0.6°C 64% 0.7 mph NE1.1 kmh NE 3.1 mph5.0 kmh 30.41 in1029.8 mb 0.00 in0.0 mm 0.00 in0.0 mm 0.00 in0.0 mm
09:05 PM 42.1°F5.6°C 30.8°F-0.7°C 64% 1.6 mph NE2.6 kmh NE 3.8 mph6.1 kmh 30.40 in1029.5 mb 0.00 in0.0 mm 0.00 in0.0 mm 0.00 in0.0 mm
09:10 PM 41.7°F5.4°C 30.5°F-0.8°C 64% 2.2 mph NE3.5 kmh NE 3.8 mph6.1 kmh 30.41 in1029.8 mb 0.00 in0.0 mm 0.00 in0.0 mm 0.00 in0.0 mm
09:15 PM 41.5°F5.3°C 30.3°F-0.9°C 64% 3.1 mph NE5.0 kmh NE 4.5 mph7.2 kmh 30.40 in1029.5 mb 0.00 in0.0 mm 0.00 in0.0 mm 0.00 in0.0 mm
09:20 PM 41.4°F5.2°C 30.1°F-1.1°C 64% 2.2 mph NE3.5 kmh NE 4.5 mph7.2 kmh 30.40 in1029.5 mb 0.00 in0.0 mm 0.00 in0.0 mm 0.00 in0.0 mm
09:25 PM 41.4°F5.2°C 30.1°F-1.1°C 64% 2.2 mph NE3.5 kmh NE 4.5 mph7.2 kmh 30.41 in1029.8 mb 0.00 in0.0 mm 0.00 in0.0 mm 0.00 in0.0 mm
09:30 PM 41.2°F5.1°C 29.9°F-1.2°C 64% 2.2 mph NNE3.5 kmh NNE 4.5 mph7.2 kmh 30.40 in1029.5 mb 0.00 in0.0 mm 0.00 in0.0 mm 0.00 in0.0 mm
09:35 PM 41.0°F5.0°C 29.8°F-1.2°C 64% Calm Calm 3.8 mph6.1 kmh 30.41 in1029.8 mb 0.00 in0.0 mm 0.00 in0.0 mm 0.00 in0.0 mm
09:40 PM 40.8°F4.9°C 30.0°F-1.1°C 65% Calm Calm 3.1 mph5.0 kmh 30.41 in1029.8 mb 0.00 in0.0 mm 0.00 in0.0 mm 0.00 in0.0 mm
09:45 PM 40.5°F4.7°C 30.0°F-1.1°C 66% 1.6 mph ENE2.6 kmh ENE 3.1 mph5.0 kmh 30.41 in1029.8 mb 0.00 in0.0 mm 0.00 in0.0 mm 0.00 in0.0 mm
09:50 PM 40.6°F4.8°C 30.6°F-0.8°C 67% 0.7 mph NE1.1 kmh NE 3.1 mph5.0 kmh 30.41 in1029.8 mb 0.00 in0.0 mm 0.00 in0.0 mm 0.00 in0.0 mm
09:55 PM 40.6°F4.8°C 30.6°F-0.8°C 67% 0.7 mph NE1.1 kmh NE 3.1 mph5.0 kmh 30.41 in1029.8 mb 0.00 in0.0 mm 0.00 in0.0 mm 0.00 in0.0 mm
10:00 PM 40.5°F4.7°C 30.4°F-0.9°C 67% 0.7 mph NE1.1 kmh NE 2.2 mph3.5 kmh 30.41 in1029.8 mb 0.00 in0.0 mm 0.00 in0.0 mm 0.00 in0.0 mm
10:05 PM 40.5°F4.7°C 30.4°F-0.9°C 67% 0.7 mph NE1.1 kmh NE 2.2 mph3.5 kmh 30.42 in1030.1 mb 0.00 in0.0 mm 0.00 in0.0 mm 0.00 in0.0 mm
10:10 PM 40.1°F4.5°C 30.4°F-0.9°C 68% 1.6 mph E2.6 kmh E 3.1 mph5.0 kmh 30.41 in1029.8 mb 0.00 in0.0 mm 0.00 in0.0 mm 0.00 in0.0 mm
10:15 PM 40.1°F4.5°C 30.4°F-0.9°C 68% 1.6 mph E2.6 kmh E 3.1 mph5.0 kmh 30.41 in1029.8 mb 0.00 in0.0 mm 0.00 in0.0 mm 0.00 in0.0 mm
10:20 PM 39.7°F4.3°C 30.1°F-1.1°C 68% 2.2 mph E3.5 kmh E 3.1 mph5.0 kmh 30.41 in1029.8 mb 0.00 in0.0 mm 0.00 in0.0 mm 0.00 in0.0 mm
10:25 PM 39.7°F4.3°C 30.4°F-0.9°C 69% 1.6 mph E2.6 kmh E 3.1 mph5.0 kmh 30.41 in1029.8 mb 0.00 in0.0 mm 0.00 in0.0 mm 0.00 in0.0 mm
10:30 PM 39.6°F4.2°C 30.2°F-1.0°C 69% 0.7 mph E1.1 kmh E 3.1 mph5.0 kmh 30.41 in1029.8 mb 0.00 in0.0 mm 0.00 in0.0 mm 0.00 in0.0 mm
10:35 PM 39.2°F4.0°C 29.9°F-1.2°C 69% Calm Calm 2.2 mph3.5 kmh 30.41 in1029.8 mb 0.00 in0.0 mm 0.00 in0.0 mm 0.00 in0.0 mm
10:40 PM 39.0°F3.9°C 30.4°F-0.9°C 71% Calm Calm 1.6 mph2.6 kmh 30.42 in1030.1 mb 0.00 in0.0 mm 0.00 in0.0 mm 0.00 in0.0 mm
10:45 PM 38.7°F3.7°C 30.1°F-1.1°C 71% 0.7 mph N1.1 kmh N 1.6 mph2.6 kmh 30.42 in1030.1 mb 0.00 in0.0 mm 0.00 in0.0 mm 0.00 in0.0 mm
10:50 PM 38.1°F3.4°C 29.9°F-1.2°C 72% 0.7 mph N1.1 kmh N 1.6 mph2.6 kmh 30.42 in1030.1 mb 0.00 in0.0 mm 0.00 in0.0 mm 0.00 in0.0 mm
10:55 PM 37.9°F3.3°C 29.7°F-1.3°C 72% Calm Calm 1.6 mph2.6 kmh 30.42 in1030.1 mb 0.00 in0.0 mm 0.00 in0.0 mm 0.00 in0.0 mm
11:00 PM 37.6°F3.1°C 29.7°F-1.3°C 73% Calm Calm 1.6 mph2.6 kmh 30.43 in1030.5 mb 0.00 in0.0 mm 0.00 in0.0 mm 0.00 in0.0 mm
11:05 PM 37.4°F3.0°C 29.9°F-1.2°C 74% Calm Calm 1.6 mph2.6 kmh 30.42 in1030.1 mb 0.00 in0.0 mm 0.00 in0.0 mm 0.00 in0.0 mm
11:10 PM 37.2°F2.9°C 28.4°F-2.0°C 70% 1.6 mph NE2.6 kmh NE 2.2 mph3.5 kmh 30.42 in1030.1 mb 0.00 in0.0 mm 0.00 in0.0 mm 0.00 in0.0 mm
11:15 PM 37.2°F2.9°C 28.7°F-1.8°C 71% 1.6 mph E2.6 kmh E 3.1 mph5.0 kmh 30.43 in1030.5 mb 0.00 in0.0 mm 0.00 in0.0 mm 0.00 in0.0 mm
11:20 PM 37.2°F2.9°C 28.7°F-1.8°C 71% 1.6 mph E2.6 kmh E 3.1 mph5.0 kmh 30.43 in1030.5 mb 0.00 in0.0 mm 0.00 in0.0 mm 0.00 in0.0 mm
11:25 PM 37.4°F3.0°C 30.2°F-1.0°C 75% 1.6 mph E2.6 kmh E 3.1 mph5.0 kmh 30.43 in1030.5 mb 0.00 in0.0 mm 0.00 in0.0 mm 0.00 in0.0 mm
11:30 PM 37.4°F3.0°C 30.2°F-1.0°C 75% 0.7 mph E1.1 kmh E 3.1 mph5.0 kmh 30.42 in1030.1 mb 0.00 in0.0 mm 0.00 in0.0 mm 0.00 in0.0 mm
11:35 PM 37.2°F2.9°C 28.7°F-1.8°C 71% 1.6 mph E2.6 kmh E 2.2 mph3.5 kmh 30.43 in1030.5 mb 0.00 in0.0 mm 0.00 in0.0 mm 0.00 in0.0 mm
11:40 PM 37.0°F2.8°C 28.5°F-1.9°C 71% 0.7 mph NE1.1 kmh NE 3.1 mph5.0 kmh 30.43 in1030.5 mb 0.00 in0.0 mm 0.00 in0.0 mm 0.00 in0.0 mm
11:45 PM 36.9°F2.7°C 28.4°F-2.0°C 71% Calm Calm 3.1 mph5.0 kmh 30.42 in1030.1 mb 0.00 in0.0 mm 0.00 in0.0 mm 0.00 in0.0 mm
11:50 PM 36.7°F2.6°C 28.2°F-2.1°C 71% Calm Calm 2.2 mph3.5 kmh 30.43 in1030.5 mb 0.00 in0.0 mm 0.00 in0.0 mm 0.00 in0.0 mm
11:55 PM 36.5°F2.5°C 28.3°F-2.1°C 72% Calm Calm 1.6 mph2.6 kmh 30.43 in1030.5 mb 0.00 in0.0 mm 0.00 in0.0 mm 0.00 in0.0 mm